Flight Track Log - Related Links

Times and Time Zones

All times are in EDT time to prevent confusion due to time zone crossing. See the SWA1787 flight status page for this flight to view local times or setup timezone preferences in your user account.

Time Position Orientation Groundspeed Altitude Reporting Facility
EDT Latitude Longitude Course Direction KTS km/h meters Rate Location/Type
Sat 19:45:04 28.0500 -82.5333 360° North 198 367 1,128  Level Tampa TRACON
Sat 19:47:06 28.0072 -82.6317 244° Southwest 172 319 2,926 824 Climbing Miami Center
Sat 19:48:06 27.9247 -82.6606 197° South 247 457 3,627 716 Climbing Miami Center
Sat 19:49:06 27.8317 -82.6933 197° South 290 538 4,359 838 Climbing Miami Center
Sat 19:50:06 27.7367 -82.7236 196° South 337 624 5,304 899 Climbing Miami Center
Sat 19:51:06 27.6322 -82.7253 181° South 373 690 6,157 838 Climbing Miami Center
Sat 19:52:06 27.5319 -82.6733 155° Southeast 393 727 6,980 732 Climbing Miami Center
Sat 19:53:06 27.4411 -82.6008 145° Southeast 386 715 7,620 320 Climbing Miami Center
Sat 19:54:06 27.3514 -82.5497 153° Southeast 398 737 7,620  Level Miami Center
Sat 19:55:06 27.2408 -82.4906 155° Southeast 404 748 7,620  Level Miami Center
Sat 19:56:06 27.1442 -82.4578 163° South 397 735 7,620 -107 Level Miami Center
Sat 19:57:06 27.0525 -82.3997 151° Southeast 398 737 7,407 -152 Descending Miami Center
Sat 19:58:06 26.9794 -82.2914 127° Southeast 381 705 7,315 -46 Descending Miami Center
Sat 19:59:06 26.9139 -82.1978 128° Southeast 381 705 7,315  Level Miami Center
Sat 20:00:06 26.8506 -82.1017 126° Southeast 380 703 7,315 -152 Level Miami Center
Sat 20:01:06 26.7875 -81.9989 124° Southeast 391 724 7,010 -305 Descending Miami Center
Sat 20:02:06 26.7197 -81.9122 131° Southeast 385 713 6,706 -305 Descending Miami Center
Sat 20:03:06 26.6494 -81.8278 133° Southeast 374 692 6,401 -305 Descending Miami Center
Sat 20:04:06 26.5833 -81.7414 131° Southeast 369 684 6,096 -305 Descending Miami Center
Sat 20:05:06 26.5172 -81.6575 131° Southeast 364 674 5,791 -183 Descending Miami Center
Sat 20:06:06 26.4594 -81.5764 128° Southeast 364 674 5,730 -183 Descending Miami Center
Sat 20:07:06 26.4081 -81.4839 122° Southeast 364 674 5,425 -442 Descending Miami Center
Sat 20:08:06 26.3589 -81.3939 121° Southeast 352 652 4,846 -549 Descending Miami Center
Sat 20:09:06 26.3069 -81.3108 125° Southeast 337 624 4,328 -518 Descending Miami Center
Sat 20:10:06 26.2594 -81.2303 123° Southeast 332 615 3,810 -520 Descending Miami Center
Sat 20:11:02 26.2056 -81.1472 126° Southeast 308 570 3,322 -396 Descending Miami Center
Sat 20:12:06 26.1678 -81.0742 120° Southeast 309 573 3,018 -354 Descending Miami Center
Sat 20:13:06 26.1242 -81.0008 124° Southeast 294 544 2,591 -380 Descending Miami Center
Sat 20:14:11 26.0997 -80.9031 106° East 282 523 2,225 -320 Descending Miami Center
Sat 20:15:06 26.0994 -80.8311 90° East 270 501 1,951 -207 Descending Miami Center
Sat 20:16:06 26.0933 -80.7456 95° East 275 509 1,829 -61 Descending Miami Center
Sat 20:17:06 26.0872 -80.6597 95° East 275 509 1,829  Level Miami Center
Sat 20:18:06 26.0811 -80.5739 95° East 275 509 1,829 -30 Level Miami Center
Sat 20:19:06 26.0792 -80.4883 91° East 275 509 1,768 -183 Descending Miami Center
Sat 20:20:06 26.0792 -80.4050 90° East 269 499 1,463 -280 Descending Miami Center
Sat 20:21:10 26.0747 -80.3264 94° East 197 365 1,189 -307 Descending Miami Center
Sat 20:22:17 26.0761 -80.2708 88° East 152 282 792 -414 Descending Miami Center
Sat 20:23:18 26.0750 -80.2222 91° East 150 278 305 -363 Descending Miami Center
Sat 20:24:13 26.0739 -80.1828 92° East 138 256 91 -233 Descending Miami Center
Sat 20:26:00 26.0667 -80.1500 180° South  Level FlightAware Approximate

Login

Don't have an account? Register now (free) for customized features, flight alerts, and more!